Terminal Aerodrome Forecast
Issued by NWS

Home | Current Version | Previous Version | Text Only | Print | Product List | Glossary On
Versions: 1 2 3 4 5 6 7 8 9 10 11 12 13 14
420
FTUS43 KMQT 101720
TAFIWD
TAF
KIWD 101720Z 1018/1118 35008KT 3SM -SHSN OVC019
      TEMPO 1018/1022 2SM -SHSN
     FM102200 33007KT 4SM -SHSN BKN024
     FM111200 29006KT 6SM -SHSN BKN020
     FM111500 27007KT P6SM VCSH BKN012
     FM111700 27007KT P6SM VCSH SCT035
      AMD LTD TO CLD VIS AND WIND=

USA.gov is the U.S. government's official web portal to all federal, state and local government web resources and services.